Time;durP1;ratioP1;P1;durP2;ratioP2;P2;SDS_P1;SDS_P2;PMS_P1;PMS_P2;Temp;Humidity;BMP_temperature;BMP_pressure;BME280_temperature;BME280_humidity;BME280_pressure;Samples;Min_cycle;Max_cycle;Signal;HPM_P1;HPM_P2
2023/05/21 00:01:41;;;;;;;;;;;;;;;17.46;52.06;100651.28;5002702;28;6885;-70
2023/05/21 00:04:07;;;;;;;;;;;;;;;17.42;52.07;100657.25;5004839;28;6792;-71
2023/05/21 00:06:34;;;;;;;;;;;;;;;17.40;52.51;100653.75;4970475;28;7200;-70
2023/05/21 00:09:02;;;;;;;;;;;;;;;17.34;52.39;100644.97;4952209;28;6996;-71
2023/05/21 00:11:28;;;;;;;;;;;;;;;17.31;52.24;100652.69;4975752;28;7402;-71
2023/05/21 00:13:54;;;;;;;;;;;;;;;17.29;52.46;100654.38;5005984;28;7212;-71
2023/05/21 00:16:21;;;;;;;;;;;;;;;17.27;52.14;100650.00;5004648;28;6934;-71
2023/05/21 00:18:48;;;;;;;;;;;;;;;17.23;52.50;100646.44;4987788;28;7075;-73
2023/05/21 00:21:21;;;;;;;;;;;;;;;17.20;52.55;100647.25;5005759;28;6926;-72
2023/05/21 00:23:47;;;;;;;;;;;;;;;17.16;52.47;100649.72;5002468;28;6941;-72
2023/05/21 00:26:12;;;;;;;;;;;;;;;17.13;52.49;100645.31;5004112;28;6864;-71
2023/05/21 00:28:38;;;;;;;;;;;;;;;17.10;52.66;100641.81;4970417;28;6829;-72
2023/05/21 00:31:04;;;;;;;;;;;;;;;17.06;52.75;100649.47;4973687;28;6772;-71
2023/05/21 00:33:29;;;;;;;;;;;;;;;17.06;52.91;100646.03;5003073;28;6764;-71
2023/05/21 00:35:56;;;;;;;;;;;;;;;17.04;53.08;100639.91;5007080;28;6922;-73
2023/05/21 00:38:22;;;;;;;;;;;;;;;17.03;53.37;100633.00;5007298;28;6796;-72
2023/05/21 00:40:49;;;;;;;;;;;;;;;17.03;53.17;100635.56;4971005;28;6788;-72
2023/05/21 00:43:14;;;;;;;;;;;;;;;17.01;53.53;100635.56;4999235;28;6775;-72
2023/05/21 00:45:46;;;;;;;;;;;;;;;17.01;53.29;100637.25;4971474;28;6948;-72
2023/05/21 00:48:12;;;;;;;;;;;;;;;17.01;53.45;100634.66;4954513;28;6796;-74
2023/05/21 00:50:39;;;;;;;;;;;;;;;17.00;53.11;100628.63;4999294;28;6847;-71
2023/05/21 00:53:09;;;;;;;;;;;;;;;16.99;53.42;100634.59;4971740;28;7168;-73
2023/05/21 00:55:39;;;;;;;;;;;;;;;16.98;53.54;100630.25;4976224;28;7163;-71
2023/05/21 00:58:07;;;;;;;;;;;;;;;16.97;53.34;100635.41;4973322;28;6999;-71
2023/05/21 01:00:35;;;;;;;;;;;;;;;16.96;53.88;100637.09;4962082;28;7060;-71
2023/05/21 01:03:01;;;;;;;;;;;;;;;16.96;53.64;100634.53;4961434;28;6825;-72
2023/05/21 01:05:27;;;;;;;;;;;;;;;16.97;53.70;100638.00;4998868;28;7664;-71
2023/05/21 01:07:56;;;;;;;;;;;;;;;16.97;54.08;100627.63;4973291;28;6796;-71
2023/05/21 01:10:24;;;;;;;;;;;;;;;16.98;53.81;100634.56;4983734;28;6800;-71
2023/05/21 01:12:51;;;;;;;;;;;;;;;16.99;53.84;100631.13;4974905;28;6780;-71
2023/05/21 01:15:17;;;;;;;;;;;;;;;17.00;53.90;100632.88;5008188;28;6796;-71
2023/05/21 01:17:47;;;;;;;;;;;;;;;17.02;54.17;100631.25;4956902;28;6879;-71
2023/05/21 01:20:19;;;;;;;;;;;;;;;17.04;53.89;100629.56;5003107;28;7070;-72
2023/05/21 01:22:53;;;;;;;;;;;;;;;17.07;54.08;100627.94;4958970;28;6988;-72
2023/05/21 01:25:20;;;;;;;;;;;;;;;17.10;53.88;100621.09;4974573;28;7006;-72
2023/05/21 01:27:45;;;;;;;;;;;;;;;17.12;54.23;100625.44;4999491;28;7456;-71
2023/05/21 01:30:12;;;;;;;;;;;;;;;17.17;54.34;100622.97;4974715;28;6856;-71
2023/05/21 01:32:50;;;;;;;;;;;;;;;17.19;53.91;100624.78;4983132;28;6796;-72
2023/05/21 01:35:25;;;;;;;;;;;;;;;17.22;54.03;100618.78;5010264;28;6815;-72
2023/05/21 01:38:00;;;;;;;;;;;;;;;17.23;54.04;100619.66;4992599;28;7022;-71
2023/05/21 01:40:44;;;;;;;;;;;;;;;17.23;54.05;100615.38;4983142;28;7204;-71
2023/05/21 01:43:11;;;;;;;;;;;;;;;17.22;54.11;100621.38;4979367;28;8529;-71
2023/05/21 01:45:42;;;;;;;;;;;;;;;17.21;53.62;100614.47;5005269;28;6791;-71
2023/05/21 01:48:11;;;;;;;;;;;;;;;17.21;53.88;100617.91;4998454;28;6844;-72
2023/05/21 01:50:40;;;;;;;;;;;;;;;17.20;54.09;100610.97;4976548;28;6876;-72
2023/05/21 01:53:06;;;;;;;;;;;;;;;17.19;53.87;100616.13;4975744;28;6990;-72
2023/05/21 01:55:32;;;;;;;;;;;;;;;17.17;53.85;100620.38;4977737;28;6852;-73
2023/05/21 01:57:59;;;;;;;;;;;;;;;17.16;53.87;100619.53;4975001;28;7384;-71
2023/05/21 02:00:28;;;;;;;;;;;;;;;17.15;53.81;100617.78;5006580;28;6804;-73
2023/05/21 02:02:54;;;;;;;;;;;;;;;17.14;54.02;100615.13;5006036;28;6958;-71
2023/05/21 02:05:19;;;;;;;;;;;;;;;17.14;54.01;100621.22;4975582;28;6848;-73
2023/05/21 02:07:46;;;;;;;;;;;;;;;17.14;53.83;100615.13;4988032;28;7727;-71
2023/05/21 02:10:12;;;;;;;;;;;;;;;17.14;53.97;100610.84;4992541;28;7001;-70
2023/05/21 02:12:38;;;;;;;;;;;;;;;17.13;54.33;100610.81;4975811;28;6796;-71
2023/05/21 02:15:05;;;;;;;;;;;;;;;17.11;53.97;100602.97;4994396;28;6972;-71
2023/05/21 02:17:32;;;;;;;;;;;;;;;17.10;54.24;100601.25;5004763;28;6946;-71
2023/05/21 02:20:09;;;;;;;;;;;;;;;17.07;54.14;100593.41;4977087;28;6820;-72
2023/05/21 02:22:39;;;;;;;;;;;;;;;17.06;54.10;100605.47;4972520;28;6820;-72
2023/05/21 02:25:07;;;;;;;;;;;;;;;17.03;54.72;100597.63;4975790;28;6860;-72
2023/05/21 02:27:37;;;;;;;;;;;;;;;17.03;54.16;100592.44;5005357;28;7048;-71
2023/05/21 02:30:07;;;;;;;;;;;;;;;17.01;54.66;100594.13;5006838;28;6947;-71
2023/05/21 02:32:33;;;;;;;;;;;;;;;17.02;54.73;100590.72;4956331;28;7362;-71
2023/05/21 02:35:02;;;;;;;;;;;;;;;17.02;54.78;100584.63;4991165;28;7938;-73
2023/05/21 02:37:32;;;;;;;;;;;;;;;17.01;54.38;100595.84;4984205;28;7300;-73
2023/05/21 02:39:59;;;;;;;;;;;;;;;16.99;54.83;100600.94;4977601;28;7336;-72
2023/05/21 02:42:25;;;;;;;;;;;;;;;16.97;54.36;100592.25;4971920;28;6784;-71
2023/05/21 02:44:51;;;;;;;;;;;;;;;16.94;54.38;100587.88;4977961;28;6780;-73
2023/05/21 02:47:18;;;;;;;;;;;;;;;16.93;54.32;100580.09;4976443;28;6820;-73
2023/05/21 02:49:45;;;;;;;;;;;;;;;16.91;54.79;100579.19;5005477;28;6848;-73
2023/05/21 02:52:10;;;;;;;;;;;;;;;16.89;54.37;100578.25;4975461;28;7027;-73
2023/05/21 02:54:36;;;;;;;;;;;;;;;16.88;54.18;100581.66;4972911;28;6765;-73
2023/05/21 02:57:02;;;;;;;;;;;;;;;16.87;54.50;100585.09;4976636;28;7132;-73
2023/05/21 02:59:27;;;;;;;;;;;;;;;16.86;54.57;100593.69;5004958;28;7229;-73
2023/05/21 03:01:53;;;;;;;;;;;;;;;16.82;54.91;100591.88;5001016;28;7073;-73
2023/05/21 03:04:21;;;;;;;;;;;;;;;16.79;54.61;100582.31;4995227;28;7071;-73
2023/05/21 03:06:50;;;;;;;;;;;;;;;16.77;54.41;100574.50;5006344;28;6804;-73
2023/05/21 03:09:16;;;;;;;;;;;;;;;16.75;54.31;100576.19;4977871;28;6872;-73
2023/05/21 03:11:42;;;;;;;;;;;;;;;16.74;54.89;100586.50;4987792;28;6879;-73
2023/05/21 03:14:08;;;;;;;;;;;;;;;16.70;55.04;100588.13;4975437;28;6772;-73
2023/05/21 03:16:34;;;;;;;;;;;;;;;16.70;54.98;100589.84;4972304;28;6879;-73
2023/05/21 03:19:00;;;;;;;;;;;;;;;16.67;55.13;100577.72;4974201;28;6807;-74
2023/05/21 03:21:28;;;;;;;;;;;;;;;16.66;55.15;100575.97;5002988;28;6780;-73
2023/05/21 03:23:58;;;;;;;;;;;;;;;16.66;55.26;100573.38;4970766;28;7329;-73
2023/05/21 03:26:28;;;;;;;;;;;;;;;16.65;55.19;100572.47;4998981;28;7994;-73
2023/05/21 03:28:55;;;;;;;;;;;;;;;16.65;55.23;100571.63;4973680;28;7232;-73
2023/05/21 03:31:22;;;;;;;;;;;;;;;16.66;55.55;100560.44;4971710;28;6788;-73
2023/05/21 03:33:47;;;;;;;;;;;;;;;16.66;55.41;100561.31;4971507;28;6792;-73
2023/05/21 03:36:13;;;;;;;;;;;;;;;16.68;55.29;100570.84;4996376;28;6780;-73
2023/05/21 03:38:39;;;;;;;;;;;;;;;16.67;55.26;100572.53;5002276;28;6788;-73
2023/05/21 03:41:09;;;;;;;;;;;;;;;16.66;55.21;100570.78;4967060;28;7260;-73
2023/05/21 03:43:35;;;;;;;;;;;;;;;16.66;55.57;100568.19;4980883;28;6816;-76
2023/05/21 03:46:01;;;;;;;;;;;;;;;16.65;55.30;100563.84;4986492;28;6973;-73
2023/05/21 03:48:27;;;;;;;;;;;;;;;16.64;55.61;100567.28;4989354;28;6945;-73
2023/05/21 03:50:52;;;;;;;;;;;;;;;16.65;55.54;100566.44;5003200;28;6962;-73
2023/05/21 03:53:18;;;;;;;;;;;;;;;16.63;55.51;100573.31;4998867;28;7041;-73
2023/05/21 03:55:44;;;;;;;;;;;;;;;16.64;55.19;100580.22;4975302;28;7109;-73
2023/05/21 03:58:10;;;;;;;;;;;;;;;16.64;55.30;100586.25;4974716;28;6788;-73
2023/05/21 04:00:36;;;;;;;;;;;;;;;16.62;55.59;100585.34;5004792;28;6775;-74
2023/05/21 04:03:03;;;;;;;;;;;;;;;16.63;55.59;100587.09;4972050;28;6985;-76
2023/05/21 04:05:28;;;;;;;;;;;;;;;16.63;55.67;100591.41;4977819;28;8313;-76
2023/05/21 04:07:54;;;;;;;;;;;;;;;16.63;55.59;100591.41;4988633;28;7182;-76
2023/05/21 04:10:20;;;;;;;;;;;;;;;16.65;55.80;100594.91;4992784;28;7044;-76
2023/05/21 04:12:47;;;;;;;;;;;;;;;16.65;55.42;100597.50;4981089;28;6944;-76
2023/05/21 04:15:17;;;;;;;;;;;;;;;16.68;55.83;100594.97;4976086;28;6779;-77
2023/05/21 04:17:44;;;;;;;;;;;;;;;16.71;55.87;100596.78;4976333;28;6824;-75
2023/05/21 04:20:15;;;;;;;;;;;;;;;16.73;55.59;100597.69;4994798;28;6974;-77
2023/05/21 04:22:42;;;;;;;;;;;;;;;16.75;55.75;100596.91;4961178;28;7015;-77
2023/05/21 04:25:08;;;;;;;;;;;;;;;16.78;56.19;100594.38;4990439;28;6945;-77
2023/05/21 04:27:36;;;;;;;;;;;;;;;16.82;55.86;100591.88;4995695;28;6958;-77
2023/05/21 04:30:03;;;;;;;;;;;;;;;16.87;55.93;100590.28;4992816;28;7006;-76
2023/05/21 04:32:32;;;;;;;;;;;;;;;16.90;55.84;100587.75;4988554;28;7005;-77
2023/05/21 04:34:59;;;;;;;;;;;;;;;16.92;55.71;100588.69;4978108;28;6998;-77
2023/05/21 04:37:26;;;;;;;;;;;;;;;16.95;55.91;100591.34;4960199;28;7095;-75
2023/05/21 04:39:54;;;;;;;;;;;;;;;16.98;55.81;100600.91;4964377;28;7353;-75
2023/05/21 04:42:22;;;;;;;;;;;;;;;17.02;56.00;100608.81;5000175;28;6854;-76
2023/05/21 04:44:49;;;;;;;;;;;;;;;17.06;56.12;100604.59;4999094;28;6807;-77
2023/05/21 04:47:17;;;;;;;;;;;;;;;17.10;55.90;100602.97;4991918;28;7125;-77
2023/05/21 04:49:43;;;;;;;;;;;;;;;17.15;55.89;100593.59;4996469;28;7241;-75
2023/05/21 04:52:09;;;;;;;;;;;;;;;17.21;55.60;100588.56;4992196;28;8211;-75
2023/05/21 04:54:37;;;;;;;;;;;;;;;17.26;55.87;100594.72;4977469;28;7207;-75
2023/05/21 04:57:05;;;;;;;;;;;;;;;17.31;55.65;100592.22;4978918;28;6816;-76
2023/05/21 04:59:30;;;;;;;;;;;;;;;17.34;55.67;100585.41;4994612;28;7058;-74
2023/05/21 05:01:56;;;;;;;;;;;;;;;17.40;55.50;100583.81;4984387;28;7257;-76
2023/05/21 05:04:22;;;;;;;;;;;;;;;17.45;55.30;100588.25;5004559;28;7241;-77
2023/05/21 05:06:47;;;;;;;;;;;;;;;17.51;55.41;100586.63;4980957;28;6772;-77
2023/05/21 05:09:13;;;;;;;;;;;;;;;17.53;55.17;100593.59;5003407;28;6779;-74
2023/05/21 05:11:39;;;;;;;;;;;;;;;17.57;55.44;100585.03;4970723;28;7111;-77
2023/05/21 05:14:05;;;;;;;;;;;;;;;17.62;55.51;100582.56;4973492;28;7020;-77
2023/05/21 05:16:31;;;;;;;;;;;;;;;17.65;55.52;100576.56;4993304;28;7163;-75
2023/05/21 05:18:57;;;;;;;;;;;;;;;17.67;55.25;100572.28;4970636;28;6776;-74
2023/05/21 05:21:22;;;;;;;;;;;;;;;17.67;55.09;100572.28;4978428;28;6835;-77
2023/05/21 05:23:48;;;;;;;;;;;;;;;17.69;55.11;100575.81;4972436;28;6788;-75
2023/05/21 05:26:14;;;;;;;;;;;;;;;17.69;55.19;100568.03;4959340;28;6813;-74
2023/05/21 05:28:40;;;;;;;;;;;;;;;17.72;54.80;100573.28;5005894;28;6772;-78
2023/05/21 05:31:06;;;;;;;;;;;;;;;17.73;55.08;100559.47;4953132;28;6965;-76
2023/05/21 05:33:31;;;;;;;;;;;;;;;17.75;54.95;100558.66;4980939;28;7191;-75
2023/05/21 05:35:57;;;;;;;;;;;;;;;17.81;54.99;100564.81;4977583;28;6768;-78
2023/05/21 05:38:24;;;;;;;;;;;;;;;17.90;55.40;100568.47;5002868;28;7085;-78
2023/05/21 05:40:50;;;;;;;;;;;;;;;18.00;55.06;100568.66;4951940;28;7434;-77
2023/05/21 05:43:15;;;;;;;;;;;;;;;18.08;55.04;100574.03;4981131;28;6776;-76
2023/05/21 05:45:41;;;;;;;;;;;;;;;18.14;54.75;100567.22;4978172;28;7908;-75
2023/05/21 05:48:07;;;;;;;;;;;;;;;18.21;54.87;100572.56;5001625;28;6964;-78
2023/05/21 05:50:32;;;;;;;;;;;;;;;18.27;54.92;100580.47;4980478;28;7243;-77
2023/05/21 05:52:58;;;;;;;;;;;;;;;18.35;54.91;100576.31;4989336;28;7313;-77
2023/05/21 05:55:25;;;;;;;;;;;;;;;18.43;54.43;100587.66;4970687;28;7205;-74
2023/05/21 05:57:51;;;;;;;;;;;;;;;18.55;54.74;100593.97;4974427;28;6795;-75
2023/05/21 06:00:17;;;;;;;;;;;;;;;18.65;54.90;100580.28;4975354;28;7039;-78
2023/05/21 06:02:43;;;;;;;;;;;;;;;18.77;54.86;100581.34;4975074;28;7103;-75
2023/05/21 06:05:09;;;;;;;;;;;;;;;18.86;54.50;100577.16;4965959;28;7359;-75
2023/05/21 06:07:39;;;;;;;;;;;;;;;18.95;54.05;100580.78;4978193;28;6796;-74
2023/05/21 06:10:06;;;;;;;;;;;;;;;19.01;54.12;100580.91;4974286;28;6884;-74
2023/05/21 06:12:32;;;;;;;;;;;;;;;19.08;53.82;100576.69;4988190;28;7198;-75
2023/05/21 06:14:58;;;;;;;;;;;;;;;19.17;53.78;100579.44;5009500;28;6939;-74
2023/05/21 06:17:24;;;;;;;;;;;;;;;19.25;53.68;100577.81;4985476;28;6918;-74
2023/05/21 06:19:49;;;;;;;;;;;;;;;19.35;53.26;100577.97;5002828;28;6956;-74
2023/05/21 06:22:15;;;;;;;;;;;;;;;19.42;53.83;100582.41;4978892;28;7227;-74
2023/05/21 06:24:40;;;;;;;;;;;;;;;19.53;53.38;100587.72;5007491;28;6849;-74
2023/05/21 06:27:06;;;;;;;;;;;;;;;19.66;52.95;100599.19;4976144;28;6832;-74
2023/05/21 06:29:32;;;;;;;;;;;;;;;19.73;52.63;100587.13;4973972;28;7067;-74
2023/05/21 06:31:57;;;;;;;;;;;;;;;19.80;52.72;100586.38;4976497;28;6979;-74
2023/05/21 06:34:23;;;;;;;;;;;;;;;19.88;52.74;100591.66;4984902;28;7024;-74
2023/05/21 06:36:50;;;;;;;;;;;;;;;19.94;52.27;100587.47;4973833;28;7274;-74
2023/05/21 06:39:16;;;;;;;;;;;;;;;20.02;52.19;100590.16;4983480;28;6796;-74
2023/05/21 06:41:41;;;;;;;;;;;;;;;20.11;52.14;100592.84;4960708;28;6802;-74
2023/05/21 06:44:07;;;;;;;;;;;;;;;20.24;52.48;100582.59;4982914;28;7034;-74
2023/05/21 06:46:33;;;;;;;;;;;;;;;20.34;51.97;100579.22;4974141;28;7683;-74
2023/05/21 06:49:00;;;;;;;;;;;;;;;20.40;51.51;100568.88;4970694;28;6903;-74
2023/05/21 06:51:26;;;;;;;;;;;;;;;20.45;51.69;100586.25;4972680;28;7109;-74
2023/05/21 06:53:52;;;;;;;;;;;;;;;20.49;51.46;100577.66;4988523;28;6988;-75
2023/05/21 06:56:18;;;;;;;;;;;;;;;20.53;51.19;100580.28;4987521;28;6960;-73
2023/05/21 06:58:43;;;;;;;;;;;;;;;20.60;51.35;100581.22;4975833;28;7002;-73
2023/05/21 07:01:10;;;;;;;;;;;;;;;20.68;51.46;100594.31;4973125;28;6783;-75
2023/05/21 07:03:36;;;;;;;;;;;;;;;20.76;51.00;100582.22;5001239;28;6804;-73
2023/05/21 07:06:02;;;;;;;;;;;;;;;20.86;50.92;100583.22;4956684;28;6983;-74
2023/05/21 07:08:28;;;;;;;;;;;;;;;20.92;50.39;100582.41;5001300;28;6784;-73
2023/05/21 07:10:55;;;;;;;;;;;;;;;20.95;50.30;100580.66;5000861;28;6870;-73
2023/05/21 07:13:21;;;;;;;;;;;;;;;20.98;50.26;100569.41;5006860;28;8046;-73
2023/05/21 07:15:46;;;;;;;;;;;;;;;21.04;50.32;100584.22;5004407;28;7405;-73
2023/05/21 07:18:12;;;;;;;;;;;;;;;21.10;50.00;100576.44;4986241;28;6852;-75
2023/05/21 07:20:38;;;;;;;;;;;;;;;21.15;49.63;100574.75;4984946;28;8376;-74
2023/05/21 07:23:03;;;;;;;;;;;;;;;21.20;49.68;100583.47;4976026;28;6966;-74
2023/05/21 07:25:30;;;;;;;;;;;;;;;21.26;49.71;100581.78;5001625;28;6934;-74
2023/05/21 07:27:55;;;;;;;;;;;;;;;21.30;49.35;100584.41;4972437;28;6997;-74
2023/05/21 07:30:21;;;;;;;;;;;;;;;21.33;49.26;100583.53;4970889;28;7355;-74
2023/05/21 07:32:47;;;;;;;;;;;;;;;21.36;49.39;100581.84;4982238;28;7167;-74
2023/05/21 07:35:12;;;;;;;;;;;;;;;21.42;49.06;100585.34;4956236;28;7286;-76
2023/05/21 07:37:38;;;;;;;;;;;;;;;21.47;49.19;100584.50;4998359;28;6772;-76
2023/05/21 07:40:06;;;;;;;;;;;;;;;21.55;48.93;100578.47;4971231;28;6768;-74
2023/05/21 07:42:32;;;;;;;;;;;;;;;21.63;48.80;100579.38;4974027;28;6955;-73
2023/05/21 07:44:58;;;;;;;;;;;;;;;21.70;48.40;100578.56;5000981;28;6771;-74
2023/05/21 07:47:24;;;;;;;;;;;;;;;21.73;48.22;100588.16;5002241;28;7694;-74
2023/05/21 07:49:50;;;;;;;;;;;;;;;21.76;48.56;100582.94;4973990;28;6764;-74
2023/05/21 07:52:15;;;;;;;;;;;;;;;21.77;48.18;100575.13;4973176;28;6772;-74
2023/05/21 07:54:41;;;;;;;;;;;;;;;21.80;48.44;100582.09;4978010;28;6968;-74
2023/05/21 07:57:07;;;;;;;;;;;;;;;21.87;48.56;100575.19;4966916;28;6779;-74
2023/05/21 07:59:32;;;;;;;;;;;;;;;21.95;47.89;100568.25;4969980;28;6783;-74
2023/05/21 08:01:58;;;;;;;;;;;;;;;22.03;48.27;100566.53;4972893;28;6791;-74
2023/05/21 08:04:24;;;;;;;;;;;;;;;22.13;47.84;100561.34;4971902;28;7326;-74
2023/05/21 08:06:50;;;;;;;;;;;;;;;22.23;47.73;100567.44;4968379;28;6784;-74
2023/05/21 08:09:17;;;;;;;;;;;;;;;22.27;47.42;100561.38;4997610;28;6800;-74
2023/05/21 08:11:44;;;;;;;;;;;;;;;22.29;47.18;100562.25;4984782;28;7141;-74
2023/05/21 08:14:10;;;;;;;;;;;;;;;22.27;47.41;100553.56;4976162;28;6804;-74
2023/05/21 08:16:36;;;;;;;;;;;;;;;22.32;47.43;100554.41;5002263;28;7166;-74
2023/05/21 08:19:02;;;;;;;;;;;;;;;22.39;47.77;100557.91;4955131;28;7228;-74
2023/05/21 08:21:28;;;;;;;;;;;;;;;22.51;47.25;100554.47;4973039;28;7280;-74
2023/05/21 08:23:53;;;;;;;;;;;;;;;22.64;47.42;100558.84;4980535;28;6962;-74
2023/05/21 08:26:20;;;;;;;;;;;;;;;22.81;47.29;100556.25;4950891;28;7481;-74
2023/05/21 08:28:46;;;;;;;;;;;;;;;22.94;46.72;100553.63;4982482;28;7047;-72
2023/05/21 08:31:11;;;;;;;;;;;;;;;23.02;46.81;100560.56;5003736;28;6867;-74
2023/05/21 08:33:37;;;;;;;;;;;;;;;23.05;46.59;100558.84;4966363;28;6859;-71
2023/05/21 08:36:05;;;;;;;;;;;;;;;23.10;46.40;100557.06;4971247;28;6953;-72
2023/05/21 08:38:31;;;;;;;;;;;;;;;23.15;46.12;100561.44;4977909;28;6999;-73
2023/05/21 08:40:58;;;;;;;;;;;;;;;23.16;46.43;100557.09;4998228;28;6800;-71
2023/05/21 08:43:28;;;;;;;;;;;;;;;23.21;45.87;100562.31;4954487;28;6836;-74
2023/05/21 08:45:57;;;;;;;;;;;;;;;23.31;45.71;100558.81;4993928;28;7190;-72
2023/05/21 08:48:23;;;;;;;;;;;;;;;23.51;45.61;100563.13;4962375;28;7462;-72
2023/05/21 08:50:52;;;;;;;;;;;;;;;23.71;45.70;100563.94;4969433;28;6955;-73
2023/05/21 08:53:17;;;;;;;;;;;;;;;23.93;45.34;100557.72;4989227;28;7277;-73
2023/05/21 08:55:43;;;;;;;;;;;;;;;24.17;45.20;100558.50;4966882;28;6776;-73
2023/05/21 08:58:09;;;;;;;;;;;;;;;24.49;44.59;100555.66;4980867;28;6834;-74
2023/05/21 09:00:36;;;;;;;;;;;;;;;24.88;44.04;100557.13;5001111;28;6992;-72
2023/05/21 09:03:09;;;;;;;;;;;;;;;25.10;43.64;100557.81;4981237;28;6787;-72
2023/05/21 09:05:42;;;;;;;;;;;;;;;25.30;43.10;100561.97;4969903;28;6808;-72
2023/05/21 09:08:26;;;;;;;;;;;;;;;25.47;42.74;100556.53;4970168;28;6804;-73
2023/05/21 09:10:52;;;;;;;;;;;;;;;25.67;42.10;100555.47;4986851;28;7063;-74
2023/05/21 09:13:19;;;;;;;;;;;;;;;25.78;41.97;100557.06;4973148;28;6796;-73
2023/05/21 09:15:46;;;;;;;;;;;;;;;25.87;41.75;100556.06;4974360;28;6947;-72
2023/05/21 09:18:15;;;;;;;;;;;;;;;26.02;41.78;100559.41;4948614;28;6947;-73
2023/05/21 09:20:40;;;;;;;;;;;;;;;26.11;41.45;100559.28;4971741;28;6848;-75
2023/05/21 09:23:15;;;;;;;;;;;;;;;26.19;41.72;100557.44;5001037;28;7161;-73
2023/05/21 09:25:46;;;;;;;;;;;;;;;26.20;40.72;100553.91;4972052;28;6799;-73
2023/05/21 09:28:13;;;;;;;;;;;;;;;26.17;40.61;100556.56;4968063;28;6812;-73
2023/05/21 09:30:48;;;;;;;;;;;;;;;26.14;40.55;100561.00;4995386;28;7153;-72
2023/05/21 09:33:25;;;;;;;;;;;;;;;26.10;40.64;100561.91;5001504;28;6799;-72
2023/05/21 09:35:51;;;;;;;;;;;;;;;26.10;40.64;100559.28;4971462;28;6792;-72
2023/05/21 09:38:17;;;;;;;;;;;;;;;26.14;40.59;100561.00;4977615;28;6771;-72
2023/05/21 09:40:46;;;;;;;;;;;;;;;26.19;40.63;100557.44;4969275;28;7284;-71
2023/05/21 09:43:14;;;;;;;;;;;;;;;26.39;40.13;100542.25;4999087;28;6832;-73
2023/05/21 09:45:54;;;;;;;;;;;;;;;26.62;39.84;100536.63;4975370;28;6852;-71
2023/05/21 09:48:41;;;;;;;;;;;;;;;26.95;39.65;100533.47;4963909;28;7266;-72
2023/05/21 09:51:18;;;;;;;;;;;;;;;27.16;39.08;100540.97;4984340;28;6987;-73
2023/05/21 09:53:48;;;;;;;;;;;;;;;27.39;39.19;100541.41;4960743;28;7073;-72
2023/05/21 09:56:13;;;;;;;;;;;;;;;27.69;38.87;100545.22;4973412;28;6851;-71
2023/05/21 09:58:39;;;;;;;;;;;;;;;28.03;38.59;100543.63;5007806;28;7110;-73
2023/05/21 10:01:07;;;;;;;;;;;;;;;28.32;38.27;100530.69;4972020;28;6951;-73
2023/05/21 10:03:39;;;;;;;;;;;;;;;28.58;37.43;100531.81;4987308;28;6840;-72
2023/05/21 10:06:10;;;;;;;;;;;;;;;28.53;37.36;100521.41;4974781;28;6907;-74
2023/05/21 10:08:44;;;;;;;;;;;;;;;28.33;36.69;100525.38;4969705;28;6872;-72
2023/05/21 10:11:11;;;;;;;;;;;;;;;28.10;36.88;100524.16;4972275;28;7003;-74
2023/05/21 10:13:44;;;;;;;;;;;;;;;27.96;37.58;100528.84;4977486;28;6974;-71
2023/05/21 10:16:10;;;;;;;;;;;;;;;28.08;37.18;100515.38;4978213;28;7002;-73
2023/05/21 10:18:38;;;;;;;;;;;;;;;28.41;37.54;100502.34;4973158;28;6851;-73
2023/05/21 10:21:05;;;;;;;;;;;;;;;28.86;37.47;100502.13;4974197;28;7102;-72
2023/05/21 10:23:36;;;;;;;;;;;;;;;29.32;36.51;100502.63;4972010;28;6815;-73
2023/05/21 10:26:04;;;;;;;;;;;;;;;29.37;35.95;100503.38;4990004;28;6859;-74
2023/05/21 10:28:32;;;;;;;;;;;;;;;29.02;35.93;100497.31;4972380;28;7845;-75
2023/05/21 10:30:58;;;;;;;;;;;;;;;28.81;36.00;100499.59;4981136;28;6804;-74
2023/05/21 10:33:25;;;;;;;;;;;;;;;28.76;36.46;100507.63;4966246;28;6792;-74
2023/05/21 10:35:53;;;;;;;;;;;;;;;28.71;36.18;100498.94;4991100;28;6989;-74
2023/05/21 10:38:20;;;;;;;;;;;;;;;28.87;35.89;100507.34;5006827;28;6840;-74
2023/05/21 10:40:48;;;;;;;;;;;;;;;28.95;35.36;100494.81;5006281;28;6792;-74
2023/05/21 10:43:48;;;;;;;;;;;;;;;28.89;35.74;100497.66;4962489;28;7177;-74
2023/05/21 10:46:54;;;;;;;;;;;;;;;28.94;36.12;100484.34;4986259;28;7201;-75
2023/05/21 10:49:53;;;;;;;;;;;;;;;28.96;36.05;100488.63;4963517;28;8281;-74
2023/05/21 10:52:56;;;;;;;;;;;;;;;28.76;35.81;100486.53;4984206;28;6824;-74
2023/05/21 10:55:51;;;;;;;;;;;;;;;28.45;35.94;100481.19;4994739;28;7102;-74
2023/05/21 10:58:51;;;;;;;;;;;;;;;28.10;36.12;100484.63;4999856;28;6811;-74
2023/05/21 11:01:18;;;;;;;;;;;;;;;27.72;37.10;100478.47;4979894;28;6992;-73
2023/05/21 11:03:47;;;;;;;;;;;;;;;27.94;37.36;100470.09;4986612;28;6812;-73
2023/05/21 11:06:24;;;;;;;;;;;;;;;28.45;36.34;100463.59;5004021;28;6792;-73
2023/05/21 11:08:52;;;;;;;;;;;;;;;28.74;36.43;100463.72;4974203;28;7101;-73
2023/05/21 11:11:41;;;;;;;;;;;;;;;28.84;36.04;100470.53;5002106;28;6800;-73
2023/05/21 11:14:39;;;;;;;;;;;;;;;28.82;36.08;100469.66;5001815;28;6882;-73
2023/05/21 11:17:35;;;;;;;;;;;;;;;28.72;35.67;100465.56;4973494;28;7291;-73
2023/05/21 11:20:12;;;;;;;;;;;;;;;28.44;35.68;100458.38;4967341;28;7014;-74
2023/05/21 11:22:38;;;;;;;;;;;;;;;28.29;36.24;100460.47;4972802;28;6804;-73
2023/05/21 11:25:05;;;;;;;;;;;;;;;28.18;36.81;100466.00;4974571;28;6840;-73
2023/05/21 11:27:33;;;;;;;;;;;;;;;28.18;36.66;100462.47;5001685;28;6922;-74
2023/05/21 11:30:02;;;;;;;;;;;;;;;28.20;36.57;100455.44;4971343;28;6827;-73
2023/05/21 11:32:28;;;;;;;;;;;;;;;28.28;36.94;100446.44;5001209;28;7014;-73
2023/05/21 11:35:02;;;;;;;;;;;;;;;28.63;36.58;100449.06;4998593;28;7217;-73
2023/05/21 11:37:30;;;;;;;;;;;;;;;29.16;36.50;100441.50;4973467;28;6804;-73
2023/05/21 11:40:15;;;;;;;;;;;;;;;29.64;35.97;100432.19;4973483;28;7124;-74
2023/05/21 11:42:42;;;;;;;;;;;;;;;30.30;35.74;100431.00;5002147;28;6819;-73
2023/05/21 11:45:09;;;;;;;;;;;;;;;30.72;34.30;100432.22;4976741;28;6938;-74
2023/05/21 11:47:35;;;;;;;;;;;;;;;30.94;34.16;100431.44;5001628;28;6791;-74
2023/05/21 11:50:03;;;;;;;;;;;;;;;31.01;33.79;100432.94;4955807;28;7143;-74
2023/05/21 11:52:31;;;;;;;;;;;;;;;31.04;34.03;100433.66;4973135;28;7061;-74
2023/05/21 11:54:58;;;;;;;;;;;;;;;31.14;33.61;100425.38;5005094;28;6796;-74
2023/05/21 11:57:31;;;;;;;;;;;;;;;31.34;33.58;100429.94;4970507;28;6800;-73
2023/05/21 11:59:59;;;;;;;;;;;;;;;31.58;33.26;100421.94;4970952;28;7045;-73
2023/05/21 12:02:30;;;;;;;;;;;;;;;31.79;32.63;100419.38;4982076;28;7378;-73
2023/05/21 12:04:58;;;;;;;;;;;;;;;31.95;32.78;100412.53;5000235;28;6875;-73
2023/05/21 12:07:28;;;;;;;;;;;;;;;32.11;32.79;100419.84;4985890;28;7227;-73
2023/05/21 12:09:54;;;;;;;;;;;;;;;32.32;32.49;100407.47;5001216;28;6799;-73
2023/05/21 12:12:24;;;;;;;;;;;;;;;32.37;32.02;100412.63;4999328;28;6975;-73
2023/05/21 12:14:52;;;;;;;;;;;;;;;32.37;32.19;100417.94;4971233;28;6887;-73
2023/05/21 12:17:23;;;;;;;;;;;;;;;32.48;32.03;100412.13;5002443;28;6792;-72
2023/05/21 12:19:56;;;;;;;;;;;;;;;32.64;32.17;100412.31;5002341;28;6871;-73
2023/05/21 12:22:24;;;;;;;;;;;;;;;32.78;31.95;100417.88;5003963;28;7263;-73
2023/05/21 12:24:50;;;;;;;;;;;;;;;32.66;31.22;100421.09;4968403;28;6864;-73
2023/05/21 12:27:17;;;;;;;;;;;;;;;32.43;31.56;100412.34;4961666;28;8498;-73
2023/05/21 12:29:50;;;;;;;;;;;;;;;32.52;32.14;100419.88;4976519;28;6994;-70
2023/05/21 12:32:16;;;;;;;;;;;;;;;32.82;31.90;100416.78;4972427;28;6808;-70
2023/05/21 12:34:47;;;;;;;;;;;;;;;33.16;31.53;100422.38;4989045;28;6960;-72
2023/05/21 12:37:24;;;;;;;;;;;;;;;33.46;31.05;100423.66;4969949;28;6816;-70
2023/05/21 12:39:56;;;;;;;;;;;;;;;33.34;30.62;100423.31;4982189;28;8064;-69
2023/05/21 12:42:34;;;;;;;;;;;;;;;32.95;30.94;100424.25;5000037;28;6832;-70
2023/05/21 12:45:05;;;;;;;;;;;;;;;32.72;31.25;100423.44;4978640;28;6847;-73
2023/05/21 12:47:32;;;;;;;;;;;;;;;32.61;31.07;100410.69;4955060;28;7015;-70
2023/05/21 12:50:00;;;;;;;;;;;;;;;32.49;31.42;100412.06;5001850;28;7300;-70
2023/05/21 12:52:26;;;;;;;;;;;;;;;32.37;31.52;100402.84;5001097;28;6946;-70
2023/05/21 12:54:55;;;;;;;;;;;;;;;32.26;31.75;100402.44;4970247;28;6792;-70